sensor_id;sensor_type;location;lat;lon;timestamp;P1;durP1;ratioP1;P2;durP2;ratioP2
84023;SDS011;74109;45.636;25.582;2024-03-29T00:01:48;4.90;;;0.70;;
84023;SDS011;74109;45.636;25.582;2024-03-29T00:04:15;3.30;;;0.50;;
84023;SDS011;74109;45.636;25.582;2024-03-29T00:06:42;4.00;;;0.60;;
84023;SDS011;74109;45.636;25.582;2024-03-29T00:09:10;2.40;;;0.60;;
84023;SDS011;74109;45.636;25.582;2024-03-29T00:11:36;0.90;;;0.30;;
84023;SDS011;74109;45.636;25.582;2024-03-29T00:14:03;1.00;;;0.40;;
84023;SDS011;74109;45.636;25.582;2024-03-29T00:16:30;2.10;;;0.30;;
84023;SDS011;74109;45.636;25.582;2024-03-29T00:18:57;2.70;;;0.40;;
84023;SDS011;74109;45.636;25.582;2024-03-29T00:21:24;1.50;;;0.40;;
84023;SDS011;74109;45.636;25.582;2024-03-29T00:23:51;1.20;;;0.30;;
84023;SDS011;74109;45.636;25.582;2024-03-29T00:26:17;1.60;;;0.30;;
84023;SDS011;74109;45.636;25.582;2024-03-29T00:28:44;0.80;;;0.30;;
84023;SDS011;74109;45.636;25.582;2024-03-29T00:31:11;2.80;;;0.80;;
84023;SDS011;74109;45.636;25.582;2024-03-29T00:33:38;1.50;;;0.30;;
84023;SDS011;74109;45.636;25.582;2024-03-29T00:36:05;0.80;;;0.40;;
84023;SDS011;74109;45.636;25.582;2024-03-29T00:38:32;1.20;;;0.50;;
84023;SDS011;74109;45.636;25.582;2024-03-29T00:40:59;0.50;;;0.30;;
84023;SDS011;74109;45.636;25.582;2024-03-29T00:43:26;2.60;;;0.40;;
84023;SDS011;74109;45.636;25.582;2024-03-29T00:45:53;1.50;;;0.20;;
84023;SDS011;74109;45.636;25.582;2024-03-29T00:48:20;1.70;;;0.40;;
84023;SDS011;74109;45.636;25.582;2024-03-29T00:50:47;3.10;;;0.30;;
84023;SDS011;74109;45.636;25.582;2024-03-29T00:53:14;1.60;;;0.40;;
84023;SDS011;74109;45.636;25.582;2024-03-29T00:55:41;0.90;;;0.30;;
84023;SDS011;74109;45.636;25.582;2024-03-29T00:58:08;2.30;;;0.30;;
84023;SDS011;74109;45.636;25.582;2024-03-29T01:00:34;1.90;;;0.30;;
84023;SDS011;74109;45.636;25.582;2024-03-29T01:03:03;0.80;;;0.30;;
84023;SDS011;74109;45.636;25.582;2024-03-29T01:05:30;0.60;;;0.30;;
84023;SDS011;74109;45.636;25.582;2024-03-29T01:07:57;1.30;;;0.30;;
84023;SDS011;74109;45.636;25.582;2024-03-29T01:10:24;3.10;;;0.40;;
84023;SDS011;74109;45.636;25.582;2024-03-29T01:12:51;0.60;;;0.20;;
84023;SDS011;74109;45.636;25.582;2024-03-29T01:15:17;2.70;;;0.40;;
84023;SDS011;74109;45.636;25.582;2024-03-29T01:17:45;0.70;;;0.20;;
84023;SDS011;74109;45.636;25.582;2024-03-29T01:20:12;1.20;;;0.40;;
84023;SDS011;74109;45.636;25.582;2024-03-29T01:22:39;1.10;;;0.30;;
84023;SDS011;74109;45.636;25.582;2024-03-29T01:25:06;2.80;;;0.30;;
84023;SDS011;74109;45.636;25.582;2024-03-29T01:27:36;1.30;;;0.50;;
84023;SDS011;74109;45.636;25.582;2024-03-29T01:30:03;1.20;;;0.40;;
84023;SDS011;74109;45.636;25.582;2024-03-29T01:32:30;1.60;;;0.40;;
84023;SDS011;74109;45.636;25.582;2024-03-29T01:34:57;1.10;;;0.40;;
84023;SDS011;74109;45.636;25.582;2024-03-29T01:37:25;2.90;;;0.20;;
84023;SDS011;74109;45.636;25.582;2024-03-29T01:39:52;2.90;;;1.00;;
84023;SDS011;74109;45.636;25.582;2024-03-29T01:42:19;7.00;;;3.40;;
84023;SDS011;74109;45.636;25.582;2024-03-29T01:44:46;6.30;;;3.10;;
84023;SDS011;74109;45.636;25.582;2024-03-29T01:47:16;8.30;;;4.00;;
84023;SDS011;74109;45.636;25.582;2024-03-29T01:49:44;10.80;;;4.20;;
84023;SDS011;74109;45.636;25.582;2024-03-29T01:52:13;8.80;;;4.70;;
84023;SDS011;74109;45.636;25.582;2024-03-29T01:54:45;8.80;;;4.80;;
84023;SDS011;74109;45.636;25.582;2024-03-29T01:57:14;8.20;;;3.90;;
84023;SDS011;74109;45.636;25.582;2024-03-29T01:59:42;11.40;;;4.40;;
84023;SDS011;74109;45.636;25.582;2024-03-29T02:02:13;10.80;;;5.20;;
84023;SDS011;74109;45.636;25.582;2024-03-29T02:04:40;15.10;;;5.60;;
84023;SDS011;74109;45.636;25.582;2024-03-29T02:07:08;9.40;;;4.30;;
84023;SDS011;74109;45.636;25.582;2024-03-29T02:09:34;10.60;;;5.50;;
84023;SDS011;74109;45.636;25.582;2024-03-29T02:12:01;10.70;;;5.10;;
84023;SDS011;74109;45.636;25.582;2024-03-29T02:14:28;8.70;;;4.80;;
84023;SDS011;74109;45.636;25.582;2024-03-29T02:16:58;11.40;;;6.30;;
84023;SDS011;74109;45.636;25.582;2024-03-29T02:19:25;10.60;;;5.30;;
84023;SDS011;74109;45.636;25.582;2024-03-29T02:21:52;10.90;;;6.00;;
84023;SDS011;74109;45.636;25.582;2024-03-29T02:24:22;8.50;;;4.20;;
84023;SDS011;74109;45.636;25.582;2024-03-29T02:26:49;10.10;;;4.80;;
84023;SDS011;74109;45.636;25.582;2024-03-29T02:29:16;8.90;;;4.70;;
84023;SDS011;74109;45.636;25.582;2024-03-29T02:31:45;10.20;;;4.10;;
84023;SDS011;74109;45.636;25.582;2024-03-29T02:34:11;8.80;;;4.20;;
84023;SDS011;74109;45.636;25.582;2024-03-29T02:36:38;8.80;;;4.80;;
84023;SDS011;74109;45.636;25.582;2024-03-29T02:39:06;11.20;;;4.50;;
84023;SDS011;74109;45.636;25.582;2024-03-29T02:41:33;8.80;;;4.40;;
84023;SDS011;74109;45.636;25.582;2024-03-29T02:44:00;9.50;;;4.70;;
84023;SDS011;74109;45.636;25.582;2024-03-29T02:46:27;7.40;;;4.40;;
84023;SDS011;74109;45.636;25.582;2024-03-29T02:48:54;9.30;;;5.00;;
84023;SDS011;74109;45.636;25.582;2024-03-29T02:51:21;10.60;;;5.10;;
84023;SDS011;74109;45.636;25.582;2024-03-29T02:53:48;10.50;;;4.20;;
84023;SDS011;74109;45.636;25.582;2024-03-29T02:56:15;11.50;;;4.40;;
84023;SDS011;74109;45.636;25.582;2024-03-29T02:58:56;8.20;;;3.80;;
84023;SDS011;74109;45.636;25.582;2024-03-29T03:01:27;9.30;;;4.70;;
84023;SDS011;74109;45.636;25.582;2024-03-29T03:03:55;8.90;;;4.50;;
84023;SDS011;74109;45.636;25.582;2024-03-29T03:06:22;11.70;;;4.40;;
84023;SDS011;74109;45.636;25.582;2024-03-29T03:08:49;12.20;;;4.90;;
84023;SDS011;74109;45.636;25.582;2024-03-29T03:11:35;6.60;;;3.60;;
84023;SDS011;74109;45.636;25.582;2024-03-29T03:14:01;8.00;;;4.00;;
84023;SDS011;74109;45.636;25.582;2024-03-29T03:16:28;7.00;;;3.80;;
84023;SDS011;74109;45.636;25.582;2024-03-29T03:18:55;3.00;;;1.30;;
84023;SDS011;74109;45.636;25.582;2024-03-29T03:21:24;4.60;;;1.20;;
84023;SDS011;74109;45.636;25.582;2024-03-29T03:23:51;1.50;;;0.50;;
84023;SDS011;74109;45.636;25.582;2024-03-29T03:26:18;1.70;;;0.40;;
84023;SDS011;74109;45.636;25.582;2024-03-29T03:28:45;1.20;;;0.60;;
84023;SDS011;74109;45.636;25.582;2024-03-29T03:31:12;1.40;;;0.40;;
84023;SDS011;74109;45.636;25.582;2024-03-29T03:33:39;1.20;;;0.30;;
84023;SDS011;74109;45.636;25.582;2024-03-29T03:36:06;3.10;;;0.40;;
84023;SDS011;74109;45.636;25.582;2024-03-29T03:38:33;0.80;;;0.30;;
84023;SDS011;74109;45.636;25.582;2024-03-29T03:41:03;1.40;;;0.30;;
84023;SDS011;74109;45.636;25.582;2024-03-29T03:43:30;1.40;;;0.40;;
84023;SDS011;74109;45.636;25.582;2024-03-29T03:46:00;3.80;;;0.90;;
84023;SDS011;74109;45.636;25.582;2024-03-29T03:48:28;3.60;;;0.50;;
84023;SDS011;74109;45.636;25.582;2024-03-29T03:50:56;2.20;;;0.60;;
84023;SDS011;74109;45.636;25.582;2024-03-29T03:53:23;1.40;;;0.40;;
84023;SDS011;74109;45.636;25.582;2024-03-29T03:55:50;5.00;;;0.80;;
84023;SDS011;74109;45.636;25.582;2024-03-29T03:58:16;4.20;;;0.40;;
84023;SDS011;74109;45.636;25.582;2024-03-29T04:00:44;0.70;;;0.30;;
84023;SDS011;74109;45.636;25.582;2024-03-29T04:03:10;1.10;;;0.40;;
84023;SDS011;74109;45.636;25.582;2024-03-29T04:05:38;1.60;;;0.60;;
84023;SDS011;74109;45.636;25.582;2024-03-29T04:08:05;2.20;;;0.30;;
84023;SDS011;74109;45.636;25.582;2024-03-29T04:10:37;2.00;;;0.40;;
84023;SDS011;74109;45.636;25.582;2024-03-29T04:13:04;1.70;;;0.60;;
84023;SDS011;74109;45.636;25.582;2024-03-29T04:15:31;1.10;;;0.30;;
84023;SDS011;74109;45.636;25.582;2024-03-29T04:17:59;2.80;;;0.70;;
84023;SDS011;74109;45.636;25.582;2024-03-29T04:20:27;3.90;;;0.40;;
84023;SDS011;74109;45.636;25.582;2024-03-29T04:22:54;1.90;;;0.40;;
84023;SDS011;74109;45.636;25.582;2024-03-29T04:25:21;2.20;;;0.40;;
84023;SDS011;74109;45.636;25.582;2024-03-29T04:27:47;0.90;;;0.50;;
84023;SDS011;74109;45.636;25.582;2024-03-29T04:30:15;4.00;;;0.60;;
84023;SDS011;74109;45.636;25.582;2024-03-29T04:32:42;2.50;;;0.20;;
84023;SDS011;74109;45.636;25.582;2024-03-29T04:35:08;2.10;;;0.30;;
84023;SDS011;74109;45.636;25.582;2024-03-29T04:37:35;2.20;;;0.20;;
84023;SDS011;74109;45.636;25.582;2024-03-29T04:40:02;0.60;;;0.20;;
84023;SDS011;74109;45.636;25.582;2024-03-29T04:42:30;1.80;;;0.40;;
84023;SDS011;74109;45.636;25.582;2024-03-29T04:44:57;2.00;;;0.30;;
84023;SDS011;74109;45.636;25.582;2024-03-29T04:47:24;1.30;;;0.40;;
84023;SDS011;74109;45.636;25.582;2024-03-29T04:49:51;1.20;;;0.30;;
84023;SDS011;74109;45.636;25.582;2024-03-29T04:52:18;7.90;;;1.70;;
84023;SDS011;74109;45.636;25.582;2024-03-29T04:54:45;1.60;;;0.40;;
84023;SDS011;74109;45.636;25.582;2024-03-29T04:57:12;1.30;;;0.40;;
84023;SDS011;74109;45.636;25.582;2024-03-29T04:59:40;3.50;;;0.40;;
84023;SDS011;74109;45.636;25.582;2024-03-29T05:02:07;2.10;;;0.40;;
84023;SDS011;74109;45.636;25.582;2024-03-29T05:04:34;2.80;;;0.70;;
84023;SDS011;74109;45.636;25.582;2024-03-29T05:07:01;1.80;;;0.30;;
84023;SDS011;74109;45.636;25.582;2024-03-29T05:09:28;2.60;;;0.70;;
84023;SDS011;74109;45.636;25.582;2024-03-29T05:11:55;2.50;;;0.50;;
84023;SDS011;74109;45.636;25.582;2024-03-29T05:14:22;6.10;;;0.70;;
84023;SDS011;74109;45.636;25.582;2024-03-29T05:16:49;1.80;;;0.40;;
84023;SDS011;74109;45.636;25.582;2024-03-29T05:19:16;1.50;;;0.60;;
84023;SDS011;74109;45.636;25.582;2024-03-29T05:21:43;5.40;;;0.70;;
84023;SDS011;74109;45.636;25.582;2024-03-29T05:24:10;2.60;;;0.40;;
84023;SDS011;74109;45.636;25.582;2024-03-29T05:26:37;4.70;;;0.50;;
84023;SDS011;74109;45.636;25.582;2024-03-29T05:29:04;1.90;;;0.60;;
84023;SDS011;74109;45.636;25.582;2024-03-29T05:31:31;1.40;;;0.70;;
84023;SDS011;74109;45.636;25.582;2024-03-29T05:34:01;2.80;;;0.50;;
84023;SDS011;74109;45.636;25.582;2024-03-29T05:36:29;2.10;;;0.40;;
84023;SDS011;74109;45.636;25.582;2024-03-29T05:38:57;1.90;;;0.50;;
84023;SDS011;74109;45.636;25.582;2024-03-29T05:41:25;2.10;;;0.40;;
84023;SDS011;74109;45.636;25.582;2024-03-29T05:43:54;1.70;;;0.50;;
84023;SDS011;74109;45.636;25.582;2024-03-29T05:46:27;3.60;;;0.70;;
84023;SDS011;74109;45.636;25.582;2024-03-29T05:48:56;1.60;;;0.70;;
84023;SDS011;74109;45.636;25.582;2024-03-29T05:51:23;3.90;;;0.60;;
84023;SDS011;74109;45.636;25.582;2024-03-29T05:53:53;1.70;;;0.50;;
84023;SDS011;74109;45.636;25.582;2024-03-29T05:56:24;2.30;;;0.60;;
84023;SDS011;74109;45.636;25.582;2024-03-29T05:59:05;4.80;;;0.60;;
84023;SDS011;74109;45.636;25.582;2024-03-29T06:02:03;3.30;;;0.90;;
84023;SDS011;74109;45.636;25.582;2024-03-29T06:12:29;3.00;;;0.50;;
84023;SDS011;74109;45.636;25.582;2024-03-29T06:16:30;2.30;;;0.50;;
84023;SDS011;74109;45.636;25.582;2024-03-29T06:20:04;1.30;;;0.40;;
84023;SDS011;74109;45.636;25.582;2024-03-29T06:23:36;2.40;;;0.50;;
84023;SDS011;74109;45.636;25.582;2024-03-29T06:26:13;1.70;;;0.40;;
84023;SDS011;74109;45.636;25.582;2024-03-29T06:29:10;0.90;;;0.30;;
84023;SDS011;74109;45.636;25.582;2024-03-29T06:32:12;1.20;;;0.70;;
84023;SDS011;74109;45.636;25.582;2024-03-29T06:35:34;3.40;;;0.50;;
84023;SDS011;74109;45.636;25.582;2024-03-29T06:38:22;1.20;;;0.50;;
84023;SDS011;74109;45.636;25.582;2024-03-29T06:40:55;2.90;;;0.40;;
84023;SDS011;74109;45.636;25.582;2024-03-29T06:43:50;1.70;;;0.50;;
84023;SDS011;74109;45.636;25.582;2024-03-29T06:50:51;7.40;;;0.40;;
84023;SDS011;74109;45.636;25.582;2024-03-29T06:58:54;1.80;;;0.70;;
84023;SDS011;74109;45.636;25.582;2024-03-29T07:02:16;1.60;;;0.40;;
84023;SDS011;74109;45.636;25.582;2024-03-29T07:13:46;3.60;;;0.40;;
84023;SDS011;74109;45.636;25.582;2024-03-29T07:17:05;4.30;;;0.80;;
84023;SDS011;74109;45.636;25.582;2024-03-29T07:27:47;1.90;;;0.80;;
84023;SDS011;74109;45.636;25.582;2024-03-29T07:34:46;3.10;;;0.40;;
84023;SDS011;74109;45.636;25.582;2024-03-29T07:42:09;2.00;;;0.40;;
84023;SDS011;74109;45.636;25.582;2024-03-29T07:45:18;2.40;;;0.30;;
84023;SDS011;74109;45.636;25.582;2024-03-29T07:48:49;1.20;;;0.20;;
84023;SDS011;74109;45.636;25.582;2024-03-29T07:56:02;2.60;;;1.10;;
84023;SDS011;74109;45.636;25.582;2024-03-29T07:59:51;1.90;;;0.50;;
84023;SDS011;74109;45.636;25.582;2024-03-29T08:03:22;2.70;;;0.60;;
84023;SDS011;74109;45.636;25.582;2024-03-29T08:06:22;4.80;;;0.60;;
84023;SDS011;74109;45.636;25.582;2024-03-29T08:09:29;1.40;;;0.50;;
84023;SDS011;74109;45.636;25.582;2024-03-29T08:12:50;3.40;;;0.40;;
84023;SDS011;74109;45.636;25.582;2024-03-29T08:16:34;2.90;;;0.50;;
84023;SDS011;74109;45.636;25.582;2024-03-29T08:19:33;3.50;;;0.40;;
84023;SDS011;74109;45.636;25.582;2024-03-29T08:23:21;3.00;;;0.50;;
84023;SDS011;74109;45.636;25.582;2024-03-29T08:26:10;1.80;;;0.40;;
84023;SDS011;74109;45.636;25.582;2024-03-29T08:29:08;4.10;;;0.90;;
84023;SDS011;74109;45.636;25.582;2024-03-29T08:32:37;3.80;;;1.10;;
84023;SDS011;74109;45.636;25.582;2024-03-29T08:35:10;7.00;;;0.80;;
84023;SDS011;74109;45.636;25.582;2024-03-29T08:37:42;3.50;;;0.80;;
84023;SDS011;74109;45.636;25.582;2024-03-29T08:40:12;1.10;;;0.50;;
84023;SDS011;74109;45.636;25.582;2024-03-29T08:42:42;4.30;;;0.50;;
84023;SDS011;74109;45.636;25.582;2024-03-29T08:45:31;1.60;;;0.50;;
84023;SDS011;74109;45.636;25.582;2024-03-29T08:49:13;2.70;;;0.70;;
84023;SDS011;74109;45.636;25.582;2024-03-29T08:51:52;2.00;;;0.50;;
84023;SDS011;74109;45.636;25.582;2024-03-29T08:55:17;2.60;;;0.30;;
84023;SDS011;74109;45.636;25.582;2024-03-29T08:58:32;2.20;;;0.30;;
84023;SDS011;74109;45.636;25.582;2024-03-29T09:01:49;5.40;;;1.10;;
84023;SDS011;74109;45.636;25.582;2024-03-29T09:09:31;1.90;;;0.40;;
84023;SDS011;74109;45.636;25.582;2024-03-29T09:16:40;3.90;;;0.50;;
84023;SDS011;74109;45.636;25.582;2024-03-29T09:19:20;3.40;;;0.40;;
84023;SDS011;74109;45.636;25.582;2024-03-29T09:22:42;3.70;;;0.50;;
84023;SDS011;74109;45.636;25.582;2024-03-29T09:25:47;3.00;;;0.60;;
84023;SDS011;74109;45.636;25.582;2024-03-29T09:31:27;1.80;;;0.60;;
84023;SDS011;74109;45.636;25.582;2024-03-29T09:34:00;2.90;;;0.50;;
84023;SDS011;74109;45.636;25.582;2024-03-29T09:36:30;2.60;;;0.50;;
84023;SDS011;74109;45.636;25.582;2024-03-29T09:39:10;2.10;;;0.50;;
84023;SDS011;74109;45.636;25.582;2024-03-29T09:41:38;2.80;;;0.60;;
84023;SDS011;74109;45.636;25.582;2024-03-29T09:44:20;1.60;;;0.50;;
84023;SDS011;74109;45.636;25.582;2024-03-29T09:46:51;1.90;;;0.50;;
84023;SDS011;74109;45.636;25.582;2024-03-29T09:49:33;2.50;;;0.60;;
84023;SDS011;74109;45.636;25.582;2024-03-29T09:56:19;5.60;;;0.90;;
84023;SDS011;74109;45.636;25.582;2024-03-29T10:00:26;1.90;;;0.50;;
84023;SDS011;74109;45.636;25.582;2024-03-29T10:03:51;1.30;;;0.40;;
84023;SDS011;74109;45.636;25.582;2024-03-29T10:07:17;3.50;;;0.90;;
84023;SDS011;74109;45.636;25.582;2024-03-29T10:10:36;1.80;;;0.40;;
84023;SDS011;74109;45.636;25.582;2024-03-29T10:14:07;8.00;;;0.50;;
84023;SDS011;74109;45.636;25.582;2024-03-29T10:17:32;2.40;;;0.50;;
84023;SDS011;74109;45.636;25.582;2024-03-29T10:21:24;3.90;;;0.60;;
84023;SDS011;74109;45.636;25.582;2024-03-29T10:24:33;3.40;;;0.50;;
84023;SDS011;74109;45.636;25.582;2024-03-29T10:27:11;1.10;;;0.30;;
84023;SDS011;74109;45.636;25.582;2024-03-29T10:29:47;1.30;;;0.40;;
84023;SDS011;74109;45.636;25.582;2024-03-29T10:32:29;3.00;;;0.40;;
84023;SDS011;74109;45.636;25.582;2024-03-29T10:35:43;2.60;;;0.60;;
84023;SDS011;74109;45.636;25.582;2024-03-29T10:38:21;4.40;;;0.70;;
84023;SDS011;74109;45.636;25.582;2024-03-29T10:41:05;1.00;;;0.30;;
84023;SDS011;74109;45.636;25.582;2024-03-29T10:43:45;1.10;;;0.30;;
84023;SDS011;74109;45.636;25.582;2024-03-29T10:46:24;4.20;;;0.50;;
84023;SDS011;74109;45.636;25.582;2024-03-29T10:49:12;3.20;;;0.40;;
84023;SDS011;74109;45.636;25.582;2024-03-29T10:51:42;4.50;;;0.40;;
84023;SDS011;74109;45.636;25.582;2024-03-29T10:54:15;5.40;;;0.30;;
84023;SDS011;74109;45.636;25.582;2024-03-29T10:56:59;2.20;;;0.60;;
84023;SDS011;74109;45.636;25.582;2024-03-29T10:59:54;4.50;;;1.00;;
84023;SDS011;74109;45.636;25.582;2024-03-29T11:05:51;2.40;;;0.20;;
84023;SDS011;74109;45.636;25.582;2024-03-29T11:08:23;1.80;;;0.50;;
84023;SDS011;74109;45.636;25.582;2024-03-29T11:10:54;3.10;;;0.30;;
84023;SDS011;74109;45.636;25.582;2024-03-29T11:16:12;2.80;;;0.60;;
84023;SDS011;74109;45.636;25.582;2024-03-29T11:18:39;1.80;;;0.60;;
84023;SDS011;74109;45.636;25.582;2024-03-29T11:21:09;1.50;;;0.40;;
84023;SDS011;74109;45.636;25.582;2024-03-29T11:23:51;2.50;;;0.40;;
84023;SDS011;74109;45.636;25.582;2024-03-29T11:28:49;1.30;;;0.40;;
84023;SDS011;74109;45.636;25.582;2024-03-29T11:31:24;1.10;;;0.50;;
84023;SDS011;74109;45.636;25.582;2024-03-29T11:33:52;2.00;;;0.30;;
84023;SDS011;74109;45.636;25.582;2024-03-29T11:36:24;2.90;;;0.30;;
84023;SDS011;74109;45.636;25.582;2024-03-29T11:39:03;2.90;;;0.30;;
84023;SDS011;74109;45.636;25.582;2024-03-29T11:44:01;1.60;;;0.70;;
84023;SDS011;74109;45.636;25.582;2024-03-29T11:46:34;2.20;;;0.50;;
84023;SDS011;74109;45.636;25.582;2024-03-29T11:49:07;2.60;;;0.50;;
84023;SDS011;74109;45.636;25.582;2024-03-29T11:51:43;2.50;;;0.40;;
84023;SDS011;74109;45.636;25.582;2024-03-29T11:54:14;2.80;;;0.60;;
84023;SDS011;74109;45.636;25.582;2024-03-29T11:56:52;3.20;;;1.00;;
84023;SDS011;74109;45.636;25.582;2024-03-29T11:59:20;2.50;;;0.60;;
84023;SDS011;74109;45.636;25.582;2024-03-29T12:01:54;4.30;;;1.60;;
84023;SDS011;74109;45.636;25.582;2024-03-29T12:04:23;1.20;;;0.60;;
84023;SDS011;74109;45.636;25.582;2024-03-29T12:06:50;1.80;;;0.30;;
84023;SDS011;74109;45.636;25.582;2024-03-29T12:09:21;2.90;;;1.00;;
84023;SDS011;74109;45.636;25.582;2024-03-29T12:11:49;1.30;;;0.60;;
84023;SDS011;74109;45.636;25.582;2024-03-29T12:14:19;1.70;;;0.50;;
84023;SDS011;74109;45.636;25.582;2024-03-29T12:16:48;3.50;;;0.60;;
84023;SDS011;74109;45.636;25.582;2024-03-29T12:19:23;1.80;;;0.30;;
84023;SDS011;74109;45.636;25.582;2024-03-29T12:21:51;1.50;;;0.30;;
84023;SDS011;74109;45.636;25.582;2024-03-29T12:24:22;1.10;;;0.20;;
84023;SDS011;74109;45.636;25.582;2024-03-29T12:26:50;2.90;;;0.70;;
84023;SDS011;74109;45.636;25.582;2024-03-29T12:29:18;2.60;;;0.30;;
84023;SDS011;74109;45.636;25.582;2024-03-29T12:31:45;1.80;;;0.60;;
84023;SDS011;74109;45.636;25.582;2024-03-29T12:34:23;1.30;;;0.40;;
84023;SDS011;74109;45.636;25.582;2024-03-29T12:36:52;2.40;;;0.40;;
84023;SDS011;74109;45.636;25.582;2024-03-29T12:39:21;2.90;;;0.60;;
84023;SDS011;74109;45.636;25.582;2024-03-29T12:42:00;1.10;;;0.50;;
84023;SDS011;74109;45.636;25.582;2024-03-29T12:44:27;3.40;;;0.80;;
84023;SDS011;74109;45.636;25.582;2024-03-29T12:46:57;2.00;;;0.50;;
84023;SDS011;74109;45.636;25.582;2024-03-29T12:49:24;2.00;;;0.50;;
84023;SDS011;74109;45.636;25.582;2024-03-29T12:51:55;2.30;;;0.60;;
84023;SDS011;74109;45.636;25.582;2024-03-29T12:54:23;1.00;;;0.40;;
84023;SDS011;74109;45.636;25.582;2024-03-29T12:56:53;2.10;;;0.50;;
84023;SDS011;74109;45.636;25.582;2024-03-29T13:00:16;2.20;;;0.50;;
84023;SDS011;74109;45.636;25.582;2024-03-29T13:02:43;2.50;;;0.60;;
84023;SDS011;74109;45.636;25.582;2024-03-29T13:05:12;1.50;;;0.30;;
84023;SDS011;74109;45.636;25.582;2024-03-29T13:07:40;1.10;;;0.20;;
84023;SDS011;74109;45.636;25.582;2024-03-29T13:10:08;0.80;;;0.30;;
84023;SDS011;74109;45.636;25.582;2024-03-29T13:12:48;3.50;;;0.50;;
84023;SDS011;74109;45.636;25.582;2024-03-29T13:15:19;1.30;;;0.30;;
84023;SDS011;74109;45.636;25.582;2024-03-29T13:17:47;1.50;;;0.30;;
84023;SDS011;74109;45.636;25.582;2024-03-29T13:20:15;2.70;;;0.60;;
84023;SDS011;74109;45.636;25.582;2024-03-29T13:22:46;3.30;;;0.40;;
84023;SDS011;74109;45.636;25.582;2024-03-29T13:25:16;1.20;;;0.50;;
84023;SDS011;74109;45.636;25.582;2024-03-29T13:27:44;3.50;;;0.90;;
84023;SDS011;74109;45.636;25.582;2024-03-29T13:30:13;1.90;;;0.60;;
84023;SDS011;74109;45.636;25.582;2024-03-29T13:32:42;2.30;;;0.80;;
84023;SDS011;74109;45.636;25.582;2024-03-29T13:37:40;4.10;;;1.00;;
84023;SDS011;74109;45.636;25.582;2024-03-29T13:40:12;2.60;;;0.70;;
84023;SDS011;74109;45.636;25.582;2024-03-29T13:42:40;2.60;;;0.60;;
84023;SDS011;74109;45.636;25.582;2024-03-29T13:45:09;4.90;;;0.40;;
84023;SDS011;74109;45.636;25.582;2024-03-29T13:47:37;1.20;;;0.40;;
84023;SDS011;74109;45.636;25.582;2024-03-29T13:50:06;3.90;;;0.80;;
84023;SDS011;74109;45.636;25.582;2024-03-29T13:52:37;2.80;;;0.50;;
84023;SDS011;74109;45.636;25.582;2024-03-29T13:55:05;2.90;;;0.70;;
84023;SDS011;74109;45.636;25.582;2024-03-29T13:57:32;2.30;;;0.20;;
84023;SDS011;74109;45.636;25.582;2024-03-29T13:59:59;1.30;;;0.30;;
84023;SDS011;74109;45.636;25.582;2024-03-29T14:02:28;2.70;;;0.30;;
84023;SDS011;74109;45.636;25.582;2024-03-29T14:04:55;1.60;;;0.40;;
84023;SDS011;74109;45.636;25.582;2024-03-29T14:07:23;3.20;;;0.50;;
84023;SDS011;74109;45.636;25.582;2024-03-29T14:09:57;1.60;;;0.40;;
84023;SDS011;74109;45.636;25.582;2024-03-29T14:12:25;5.10;;;1.20;;
84023;SDS011;74109;45.636;25.582;2024-03-29T14:14:52;4.00;;;0.70;;
84023;SDS011;74109;45.636;25.582;2024-03-29T14:17:19;2.40;;;0.70;;
84023;SDS011;74109;45.636;25.582;2024-03-29T14:19:47;1.40;;;0.30;;
84023;SDS011;74109;45.636;25.582;2024-03-29T14:22:18;2.50;;;0.50;;
84023;SDS011;74109;45.636;25.582;2024-03-29T14:24:46;1.80;;;0.40;;
84023;SDS011;74109;45.636;25.582;2024-03-29T14:27:13;1.70;;;0.50;;
84023;SDS011;74109;45.636;25.582;2024-03-29T14:29:40;4.00;;;0.60;;
84023;SDS011;74109;45.636;25.582;2024-03-29T14:32:11;2.60;;;0.40;;
84023;SDS011;74109;45.636;25.582;2024-03-29T14:34:38;2.80;;;0.70;;
84023;SDS011;74109;45.636;25.582;2024-03-29T14:37:11;3.20;;;0.40;;
84023;SDS011;74109;45.636;25.582;2024-03-29T14:39:40;4.20;;;0.60;;
84023;SDS011;74109;45.636;25.582;2024-03-29T14:42:08;1.40;;;0.20;;
84023;SDS011;74109;45.636;25.582;2024-03-29T14:47:06;5.30;;;0.70;;
84023;SDS011;74109;45.636;25.582;2024-03-29T14:49:33;3.00;;;0.70;;
84023;SDS011;74109;45.636;25.582;2024-03-29T14:52:00;2.00;;;0.40;;
84023;SDS011;74109;45.636;25.582;2024-03-29T14:54:28;1.90;;;0.50;;
84023;SDS011;74109;45.636;25.582;2024-03-29T14:56:55;2.40;;;0.50;;
84023;SDS011;74109;45.636;25.582;2024-03-29T14:59:22;2.50;;;0.50;;
84023;SDS011;74109;45.636;25.582;2024-03-29T15:01:49;3.80;;;0.70;;
84023;SDS011;74109;45.636;25.582;2024-03-29T15:04:17;4.80;;;1.10;;
84023;SDS011;74109;45.636;25.582;2024-03-29T15:06:43;2.60;;;1.00;;
84023;SDS011;74109;45.636;25.582;2024-03-29T15:09:12;3.40;;;0.70;;
84023;SDS011;74109;45.636;25.582;2024-03-29T15:11:39;2.60;;;0.70;;
84023;SDS011;74109;45.636;25.582;2024-03-29T15:14:06;3.30;;;0.50;;
84023;SDS011;74109;45.636;25.582;2024-03-29T15:16:37;2.30;;;0.60;;
84023;SDS011;74109;45.636;25.582;2024-03-29T15:19:06;2.50;;;0.80;;
84023;SDS011;74109;45.636;25.582;2024-03-29T15:21:34;2.10;;;0.40;;
84023;SDS011;74109;45.636;25.582;2024-03-29T15:24:03;3.60;;;0.60;;
84023;SDS011;74109;45.636;25.582;2024-03-29T15:26:31;3.00;;;0.80;;
84023;SDS011;74109;45.636;25.582;2024-03-29T15:28:59;2.60;;;0.70;;
84023;SDS011;74109;45.636;25.582;2024-03-29T15:31:37;3.60;;;0.90;;
84023;SDS011;74109;45.636;25.582;2024-03-29T15:34:05;4.90;;;1.10;;
84023;SDS011;74109;45.636;25.582;2024-03-29T15:36:34;2.50;;;0.50;;
84023;SDS011;74109;45.636;25.582;2024-03-29T15:39:03;2.10;;;0.60;;
84023;SDS011;74109;45.636;25.582;2024-03-29T15:41:32;4.30;;;0.90;;
84023;SDS011;74109;45.636;25.582;2024-03-29T15:43:59;3.20;;;1.30;;
84023;SDS011;74109;45.636;25.582;2024-03-29T15:46:27;4.90;;;1.10;;
84023;SDS011;74109;45.636;25.582;2024-03-29T15:48:54;2.70;;;1.10;;
84023;SDS011;74109;45.636;25.582;2024-03-29T15:51:21;5.50;;;1.50;;
84023;SDS011;74109;45.636;25.582;2024-03-29T15:53:49;5.00;;;1.40;;
84023;SDS011;74109;45.636;25.582;2024-03-29T15:56:16;4.40;;;1.30;;
84023;SDS011;74109;45.636;25.582;2024-03-29T15:58:43;4.40;;;1.50;;
84023;SDS011;74109;45.636;25.582;2024-03-29T16:01:10;4.00;;;1.50;;
84023;SDS011;74109;45.636;25.582;2024-03-29T16:03:37;3.50;;;1.70;;
84023;SDS011;74109;45.636;25.582;2024-03-29T16:06:04;3.40;;;2.40;;
84023;SDS011;74109;45.636;25.582;2024-03-29T16:08:31;3.60;;;1.20;;
84023;SDS011;74109;45.636;25.582;2024-03-29T16:11:05;5.80;;;1.80;;
84023;SDS011;74109;45.636;25.582;2024-03-29T16:13:33;5.20;;;1.90;;
84023;SDS011;74109;45.636;25.582;2024-03-29T16:16:03;5.30;;;2.00;;
84023;SDS011;74109;45.636;25.582;2024-03-29T16:18:31;4.90;;;2.00;;
84023;SDS011;74109;45.636;25.582;2024-03-29T16:20:59;5.40;;;1.90;;
84023;SDS011;74109;45.636;25.582;2024-03-29T16:23:26;5.30;;;1.80;;
84023;SDS011;74109;45.636;25.582;2024-03-29T16:25:55;8.00;;;2.40;;
84023;SDS011;74109;45.636;25.582;2024-03-29T16:28:24;7.20;;;2.20;;
84023;SDS011;74109;45.636;25.582;2024-03-29T16:30:51;9.20;;;3.40;;
84023;SDS011;74109;45.636;25.582;2024-03-29T16:33:19;5.60;;;2.70;;
84023;SDS011;74109;45.636;25.582;2024-03-29T16:35:46;8.30;;;2.40;;
84023;SDS011;74109;45.636;25.582;2024-03-29T16:38:13;8.80;;;2.10;;
84023;SDS011;74109;45.636;25.582;2024-03-29T16:40:40;4.00;;;1.80;;
84023;SDS011;74109;45.636;25.582;2024-03-29T16:43:07;5.40;;;2.40;;